Time;durP1;ratioP1;P1;durP2;ratioP2;P2;SDS_P1;SDS_P2;PMS_P1;PMS_P2;Temp;Humidity;BMP_temperature;BMP_pressure;BME280_temperature;BME280_humidity;BME280_pressure;Samples;Min_cycle;Max_cycle;Signal;HPM_P1;HPM_P2
2022/11/22 00:02:21;;;;;;;8.93;3.50;;;;;;;5.31;100.00;98345.59;4993994;28;20109;-72
2022/11/22 00:04:48;;;;;;;8.40;3.85;;;;;;;5.50;100.00;98372.47;4986087;28;20053;-73
2022/11/22 00:07:14;;;;;;;6.65;3.20;;;;;;;5.33;100.00;98339.31;5000963;28;20050;-71
2022/11/22 00:09:41;;;;;;;7.78;2.88;;;;;;;5.17;100.00;98301.78;4999316;28;20057;-72
2022/11/22 00:12:07;;;;;;;5.45;3.05;;;;;;;5.57;100.00;98360.66;4994873;28;20557;-72
2022/11/22 00:14:34;;;;;;;7.18;3.40;;;;;;;5.59;100.00;98364.03;4984173;28;20503;-71
2022/11/22 00:17:01;;;;;;;9.52;3.28;;;;;;;5.53;100.00;98359.13;4998394;28;20161;-70
2022/11/22 00:19:27;;;;;;;9.50;3.95;;;;;;;5.51;100.00;98363.66;5003325;28;20508;-72
2022/11/22 00:21:54;;;;;;;10.50;3.58;;;;;;;5.50;100.00;98354.94;4999490;28;20077;-72
2022/11/22 00:24:20;;;;;;;6.90;3.55;;;;;;;5.31;100.00;98314.94;4987115;28;20065;-72
2022/11/22 00:26:47;;;;;;;6.88;3.00;;;;;;;5.42;100.00;98337.94;4994237;28;20046;-71
2022/11/22 00:29:14;;;;;;;8.75;3.38;;;;;;;5.18;100.00;98303.47;4999174;28;20046;-71
2022/11/22 00:31:41;;;;;;;9.20;3.58;;;;;;;5.39;100.00;98331.06;4997822;28;20495;-73
2022/11/22 00:34:07;;;;;;;7.40;4.10;;;;;;;5.35;100.00;98326.97;4983641;28;20117;-71
2022/11/22 00:36:34;;;;;;;9.38;3.60;;;;;;;5.32;100.00;98326.28;4986855;28;20106;-71
2022/11/22 00:39:01;;;;;;;8.15;3.50;;;;;;;5.34;100.00;98325.28;5001005;28;20735;-71
2022/11/22 00:41:27;;;;;;;11.30;4.00;;;;;;;5.35;100.00;98319.09;4996839;28;20046;-71
2022/11/22 00:43:54;;;;;;;6.50;3.83;;;;;;;5.35;100.00;98321.72;4982281;28;20502;-70
2022/11/22 00:46:20;;;;;;;7.60;3.40;;;;;;;5.20;100.00;98291.09;4989015;28;20085;-69
2022/11/22 00:48:47;;;;;;;6.47;3.13;;;;;;;5.31;100.00;98307.06;4992692;28;20041;-69
2022/11/22 00:51:13;;;;;;;10.23;3.35;;;;;;;5.34;100.00;98304.28;4991450;28;20046;-70
2022/11/22 00:53:40;;;;;;;8.43;3.28;;;;;;;5.31;100.00;98304.44;4989627;28;20454;-70
2022/11/22 00:56:07;;;;;;;5.97;3.55;;;;;;;5.33;100.00;98304.34;4986548;28;20049;-69
2022/11/22 00:58:33;;;;;;;9.85;3.65;;;;;;;5.31;100.00;98290.47;4997571;28;20350;-70
2022/11/22 01:01:00;;;;;;;9.98;3.55;;;;;;;5.33;100.00;98299.97;5001595;28;20062;-71
2022/11/22 01:03:27;;;;;;;9.73;4.10;;;;;;;5.33;100.00;98309.59;4996228;28;20126;-70
2022/11/22 01:05:53;;;;;;;9.82;3.90;;;;;;;5.35;100.00;98318.25;4989391;28;20394;-70
2022/11/22 01:08:20;;;;;;;7.63;3.70;;;;;;;5.32;100.00;98311.38;4998453;28;20418;-69
2022/11/22 01:10:46;;;;;;;7.15;4.00;;;;;;;5.29;100.00;98301.91;4993615;28;20411;-69
2022/11/22 01:13:13;;;;;;;9.60;3.70;;;;;;;5.16;100.00;98297.47;4992930;28;20070;-71
2022/11/22 01:15:39;;;;;;;9.52;3.92;;;;;;;5.32;100.00;98327.13;4982844;28;20068;-70
2022/11/22 01:18:06;;;;;;;7.22;3.78;;;;;;;5.12;100.00;98285.47;5001048;28;20061;-70
2022/11/22 01:20:33;;;;;;;10.32;4.18;;;;;;;5.16;100.00;98295.69;5003194;28;20050;-70
2022/11/22 01:22:59;;;;;;;8.23;3.90;;;;;;;5.35;100.00;98329.59;5001234;28;20050;-70
2022/11/22 01:25:26;;;;;;;10.30;4.13;;;;;;;5.34;100.00;98317.41;4982626;28;20062;-70
2022/11/22 01:27:52;;;;;;;9.15;4.20;;;;;;;5.08;100.00;98283.94;4994228;28;20052;-71
2022/11/22 01:30:19;;;;;;;10.25;4.72;;;;;;;5.15;100.00;98308.91;4990783;28;20054;-71
2022/11/22 01:32:45;;;;;;;11.15;4.57;;;;;;;5.12;100.00;98311.69;4993469;28;20056;-71
2022/11/22 01:35:12;;;;;;;8.88;4.47;;;;;;;5.29;100.00;98322.06;4979907;28;20047;-73
2022/11/22 01:37:39;;;;;;;9.85;4.50;;;;;;;5.29;100.00;98325.53;4995994;28;20133;-72
2022/11/22 01:40:06;;;;;;;11.70;4.55;;;;;;;5.16;100.00;98319.31;4999595;28;20069;-73
2022/11/22 01:42:50;;;;;;;11.60;4.65;;;;;;;5.23;100.00;98340.78;4992551;28;20089;-73
2022/11/22 01:45:29;;;;;;;9.13;4.60;;;;;;;5.06;100.00;98323.38;4980467;28;20077;-70
2022/11/22 01:48:06;;;;;;;13.98;4.80;;;;;;;5.22;100.00;98357.44;4986133;28;20053;-71
2022/11/22 01:50:36;;;;;;;8.75;4.53;;;;;;;5.19;100.00;98355.88;4990594;28;20145;-72
2022/11/22 01:53:09;;;;;;;12.13;5.25;;;;;;;5.24;100.00;98364.31;5000635;28;20137;-71
2022/11/22 01:55:36;;;;;;;11.18;5.57;;;;;;;5.20;100.00;98348.81;4987716;28;20562;-71
2022/11/22 01:58:03;;;;;;;10.80;5.00;;;;;;;5.20;100.00;98349.66;4995199;28;20057;-71
2022/11/22 02:00:30;;;;;;;9.90;4.93;;;;;;;4.97;100.00;98310.81;5001680;28;20137;-71
2022/11/22 02:03:00;;;;;;;12.60;5.05;;;;;;;5.19;100.00;98348.00;4994421;28;20080;-71
2022/11/22 02:05:31;;;;;;;15.13;6.35;;;;;;;5.22;100.00;98357.44;4980582;28;20522;-71
2022/11/22 02:08:09;;;;;;;13.48;5.53;;;;;;;5.13;100.00;98353.59;4993468;28;20050;-72
2022/11/22 02:10:42;;;;;;;11.65;5.90;;;;;;;5.09;100.00;98344.19;4996302;28;20050;-71
2022/11/22 02:13:09;;;;;;;15.32;6.75;;;;;;;5.18;100.00;98359.44;4986100;28;20052;-72
2022/11/22 02:15:36;;;;;;;14.45;6.70;;;;;;;5.18;100.00;98354.19;4977506;28;20078;-71
2022/11/22 02:18:03;;;;;;;7.57;5.53;;;;;;;5.18;100.00;98350.72;4990117;28;20049;-71
2022/11/22 02:20:30;;;;;;;11.65;6.43;;;;;;;5.19;100.00;98349.78;4996771;28;20068;-71
2022/11/22 02:23:15;;;;;;;11.45;6.35;;;;;;;5.23;100.00;98356.50;4995217;28;20586;-71
2022/11/22 02:26:01;;;;;;;12.00;6.00;;;;;;;5.13;100.00;98337.00;4978515;28;20129;-71
2022/11/22 02:28:31;;;;;;;12.35;7.10;;;;;;;5.27;100.00;98358.88;4989690;28;20097;-71
2022/11/22 02:30:57;;;;;;;11.98;6.82;;;;;;;5.26;100.00;98354.56;4997468;28;20497;-71
2022/11/22 02:33:24;;;;;;;14.38;7.20;;;;;;;5.10;100.00;98334.53;4990259;28;20042;-71
2022/11/22 02:35:50;;;;;;;12.95;7.47;;;;;;;5.24;100.00;98372.16;4974386;28;20126;-72
2022/11/22 02:38:23;;;;;;;13.10;7.25;;;;;;;5.27;100.00;98374.63;4994258;28;20053;-71
2022/11/22 02:41:00;;;;;;;12.65;7.68;;;;;;;5.20;100.00;98369.81;5002310;28;20462;-71
2022/11/22 02:43:33;;;;;;;13.05;7.35;;;;;;;5.16;100.00;98371.78;4996853;28;20089;-72
2022/11/22 02:46:05;;;;;;;15.73;7.18;;;;;;;5.18;100.00;98383.03;4983050;28;20065;-71
2022/11/22 02:48:32;;;;;;;17.95;8.48;;;;;;;5.18;100.00;98385.66;4989508;28;20074;-71
2022/11/22 02:50:58;;;;;;;15.20;7.80;;;;;;;5.18;100.00;98385.66;4993832;28;20064;-71
2022/11/22 02:53:25;;;;;;;11.68;7.85;;;;;;;5.16;100.00;98376.19;4995255;28;20619;-71
2022/11/22 02:55:51;;;;;;;13.18;7.93;;;;;;;5.20;100.00;98382.94;4977062;28;20073;-71
2022/11/22 02:58:18;;;;;;;11.48;8.13;;;;;;;5.24;100.00;98387.91;4995812;28;20049;-72
2022/11/22 03:00:44;;;;;;;18.05;8.60;;;;;;;5.11;100.00;98358.06;4993169;28;20239;-72
2022/11/22 03:03:11;;;;;;;13.63;8.38;;;;;;;5.24;100.00;98372.16;4988345;28;20138;-72
2022/11/22 03:05:38;;;;;;;18.27;9.32;;;;;;;5.25;100.00;98366.00;4981979;28;20050;-71
2022/11/22 03:08:04;;;;;;;15.23;8.50;;;;;;;5.15;100.00;98335.97;4992164;28;20065;-71
2022/11/22 03:10:31;;;;;;;13.45;9.18;;;;;;;5.43;100.00;98376.38;4996587;28;20065;-71
2022/11/22 03:12:58;;;;;;;15.38;9.43;;;;;;;5.50;100.00;98382.97;4989514;28;20056;-72
2022/11/22 03:15:25;;;;;;;14.48;9.45;;;;;;;5.44;100.00;98372.81;4974173;28;20069;-72
2022/11/22 03:17:59;;;;;;;17.60;10.10;;;;;;;5.38;100.00;98362.66;4995144;28;20674;-72
2022/11/22 03:20:26;;;;;;;18.52;10.13;;;;;;;5.56;100.00;98385.22;4995252;28;20074;-71
2022/11/22 03:22:53;;;;;;;14.60;9.15;;;;;;;5.63;100.00;98390.03;5002038;28;20050;-71
2022/11/22 03:25:20;;;;;;;13.50;9.20;;;;;;;5.73;100.00;98395.56;4980571;28;20109;-71
2022/11/22 03:27:46;;;;;;;16.17;10.15;;;;;;;5.72;100.00;98375.50;4998994;28;20046;-71
2022/11/22 03:30:13;;;;;;;18.70;10.52;;;;;;;5.61;100.00;98354.28;4997632;28;20042;-71
2022/11/22 03:32:40;;;;;;;20.02;11.60;;;;;;;5.88;100.00;98397.31;5005757;28;20042;-71
2022/11/22 03:35:07;;;;;;;20.02;12.30;;;;;;;5.81;100.00;98379.38;4991643;28;20050;-71
2022/11/22 03:37:34;;;;;;;16.48;10.55;;;;;;;5.91;100.00;98397.13;4996574;28;20053;-73
2022/11/22 03:40:00;;;;;;;17.67;10.45;;;;;;;5.96;100.00;98404.75;5002586;28;20080;-72
2022/11/22 03:42:27;;;;;;;18.13;10.95;;;;;;;5.83;100.00;98373.06;4996505;28;20064;-72
2022/11/22 03:44:53;;;;;;;17.73;10.82;;;;;;;6.11;100.00;98413.50;4992930;28;21617;-72
2022/11/22 03:47:20;;;;;;;15.77;10.18;;;;;;;6.12;100.00;98407.31;4984954;28;20061;-71
2022/11/22 03:49:47;;;;;;;17.77;10.88;;;;;;;6.21;100.00;98415.47;4993345;28;20426;-72
2022/11/22 03:52:13;;;;;;;17.58;10.75;;;;;;;6.23;100.00;98410.13;5000608;28;20052;-72
2022/11/22 03:54:40;;;;;;;15.98;10.75;;;;;;;6.26;100.00;98417.81;4995402;28;20065;-72
2022/11/22 03:57:07;;;;;;;16.55;11.30;;;;;;;6.25;100.00;98416.13;4981838;28;20164;-71
2022/11/22 03:59:33;;;;;;;17.55;10.82;;;;;;;6.20;100.00;98412.94;5003817;28;20128;-71
2022/11/22 04:02:00;;;;;;;16.38;11.23;;;;;;;6.23;100.00;98418.00;5001662;28;20496;-71
2022/11/22 04:04:26;;;;;;;16.75;10.35;;;;;;;6.18;100.00;98406.91;4994113;28;20129;-72
2022/11/22 04:06:53;;;;;;;15.48;10.95;;;;;;;6.29;100.00;98417.66;4987188;28;20133;-72
2022/11/22 04:09:20;;;;;;;16.85;11.15;;;;;;;6.25;100.00;98413.50;4999797;28;20049;-71
2022/11/22 04:11:46;;;;;;;19.55;11.43;;;;;;;6.22;100.00;98411.91;4995655;28;20038;-72
2022/11/22 04:16:58;;;;;;;20.90;11.35;;;;;;;6.24;100.00;98420.53;4985518;28;20092;-72
2022/11/22 04:19:25;;;;;;;18.13;11.00;;;;;;;6.26;100.00;98421.31;5006094;28;20138;-71
2022/11/22 04:21:51;;;;;;;18.70;10.90;;;;;;;6.30;100.00;98429.81;5000138;28;20061;-71
2022/11/22 04:27:03;;;;;;;22.30;10.90;;;;;;;6.16;100.00;98395.66;4981040;28;20065;-71
2022/11/22 04:29:30;;;;;;;21.02;11.75;;;;;;;6.33;100.00;98424.38;4999391;28;20045;-71
2022/11/22 04:34:42;;;;;;;18.67;11.00;;;;;;;6.28;100.00;98413.31;4992365;28;20054;-72
2022/11/22 04:37:09;;;;;;;18.85;11.50;;;;;;;5.94;100.00;98359.34;4976209;28;20530;-71
2022/11/22 04:39:35;;;;;;;19.20;11.27;;;;;;;6.28;100.00;98423.84;4999482;28;20072;-71
2022/11/22 04:44:47;;;;;;;18.45;10.77;;;;;;;6.37;100.00;98428.53;4984817;28;20133;-73
2022/11/22 04:47:57;;;;;;;20.02;10.93;;;;;;;6.41;100.00;98432.66;4978412;28;20490;-71
2022/11/22 04:52:52;;;;;;;17.42;10.85;;;;;;;6.46;100.00;98430.56;4990680;28;20053;-71
2022/11/22 04:52:54;;;;;;;18.35;10.27;;;;;;;6.48;100.00;98433.97;4997542;28;20041;-72
2022/11/22 04:55:21;;;;;;;19.92;10.80;;;;;;;6.50;100.00;98433.88;4978537;28;20137;-71
2022/11/22 04:57:47;;;;;;;18.10;10.00;;;;;;;6.48;100.00;98422.59;4987302;28;20046;-71
2022/11/22 05:00:17;;;;;;;16.80;10.38;;;;;;;6.51;100.00;98432.94;5002643;28;20516;-71
2022/11/22 05:02:44;;;;;;;18.65;10.20;;;;;;;6.28;100.00;98394.94;4994105;28;20145;-71
2022/11/22 05:05:10;;;;;;;17.20;9.55;;;;;;;6.26;100.00;98400.28;4990633;28;20218;-71
2022/11/22 05:07:37;;;;;;;16.35;10.13;;;;;;;6.47;100.00;98450.66;4981982;28;20112;-71
2022/11/22 05:10:04;;;;;;;15.43;10.05;;;;;;;6.48;100.00;98441.84;4999536;28;20043;-71
2022/11/22 05:12:31;;;;;;;18.92;9.45;;;;;;;6.48;100.00;98452.38;4993868;28;20056;-71
2022/11/22 05:14:57;;;;;;;17.60;10.95;;;;;;;6.47;100.00;98458.56;4991838;28;20042;-71
2022/11/22 05:17:24;;;;;;;19.63;10.18;;;;;;;6.39;100.00;98445.06;4982097;28;20137;-71
2022/11/22 05:19:50;;;;;;;19.23;10.18;;;;;;;6.43;100.00;98446.56;5006138;28;20217;-71
2022/11/22 05:23:52;;;;;;;21.40;10.10;;;;;;;6.45;100.00;98452.56;4991411;28;20141;-72
2022/11/22 05:25:04;;;;;;;17.98;9.80;;;;;;;6.50;100.00;98458.38;4985909;28;20050;-72
2022/11/22 05:27:30;;;;;;;14.50;9.40;;;;;;;6.51;100.00;98459.22;4983199;28;20228;-72
2022/11/22 05:29:57;;;;;;;17.88;9.13;;;;;;;6.15;100.00;98399.22;4996008;28;20046;-72
2022/11/22 05:32:24;;;;;;;13.93;8.13;;;;;;;6.54;100.00;98466.94;4998590;28;20039;-72
2022/11/22 05:34:50;;;;;;;20.58;8.63;;;;;;;6.30;100.00;98430.66;4989342;28;20050;-73
2022/11/22 05:37:17;;;;;;;14.18;7.97;;;;;;;6.51;100.00;98464.47;4981125;28;20046;-72
2022/11/22 05:39:43;;;;;;;21.95;8.00;;;;;;;6.49;100.00;98466.34;5000996;28;20046;-72
2022/11/22 05:42:10;;;;;;;13.70;8.20;;;;;;;6.51;100.00;98478.47;4990972;28;20132;-72
2022/11/22 05:44:37;;;;;;;19.67;8.38;;;;;;;6.50;100.00;98468.91;5003062;28;20516;-72
2022/11/22 05:47:03;;;;;;;14.80;8.23;;;;;;;6.50;100.00;98478.56;4981516;28;20137;-71
2022/11/22 05:49:30;;;;;;;19.40;8.10;;;;;;;6.52;100.00;98481.94;4988591;28;20054;-70
2022/11/22 05:51:57;;;;;;;12.38;7.25;;;;;;;6.43;100.00;98475.47;4999118;28;20447;-71
2022/11/22 05:54:24;;;;;;;13.70;6.95;;;;;;;6.41;100.00;98487.03;4996804;28;20145;-71
2022/11/22 05:56:51;;;;;;;14.50;7.10;;;;;;;6.29;100.00;98483.34;4976960;28;20066;-71
2022/11/22 05:59:17;;;;;;;17.88;7.28;;;;;;;6.16;100.00;98488.47;4994436;28;20046;-71
2022/11/22 06:01:44;;;;;;;17.85;6.60;;;;;;;6.08;100.00;98480.22;5001620;28;20046;-71
2022/11/22 06:04:11;;;;;;;14.80;6.38;;;;;;;6.09;100.00;98499.44;4990471;28;20050;-71
2022/11/22 06:06:37;;;;;;;13.88;6.28;;;;;;;6.04;100.00;98496.25;4980051;28;20058;-71
2022/11/22 06:09:04;;;;;;;16.30;6.97;;;;;;;5.85;100.00;98478.03;4994373;28;20066;-71
2022/11/22 06:11:30;;;;;;;16.05;6.13;;;;;;;5.96;100.00;98513.31;4995739;28;20622;-71
2022/11/22 06:14:03;;;;;;;13.60;5.60;;;;;;;5.93;100.00;98516.13;4999419;28;20157;-70
2022/11/22 06:16:30;;;;;;;13.90;6.25;;;;;;;5.90;100.00;98521.53;4977247;28;20440;-71
2022/11/22 06:18:56;;;;;;;16.60;5.68;;;;;;;5.88;100.00;98520.78;4989654;28;20042;-71
2022/11/22 06:21:25;;;;;;;15.55;5.80;;;;;;;5.88;100.00;98522.53;4999189;28;20074;-71
2022/11/22 06:23:55;;;;;;;16.52;7.40;;;;;;;5.87;100.00;98524.31;4995491;28;20050;-71
2022/11/22 06:26:23;;;;;;;23.40;6.75;;;;;;;5.86;100.00;98527.88;4981243;28;20419;-70
2022/11/22 06:28:49;;;;;;;20.52;6.30;;;;;;;5.64;100.00;98499.38;4993095;28;20418;-70
2022/11/22 06:31:22;;;;;;;19.50;6.28;;;;;;;5.81;100.00;98537.81;4997892;28;20461;-70
2022/11/22 06:33:48;;;;;;;21.15;6.55;;;;;;;5.83;100.00;98548.19;4991740;28;20151;-70
2022/11/22 06:36:17;;;;;;;18.85;6.10;;;;;;;5.65;100.00;98513.34;4990710;28;20133;-72
2022/11/22 06:38:45;;;;;;;17.15;6.03;;;;;;;5.78;100.00;98551.09;4993734;28;20053;-72
2022/11/22 06:41:17;;;;;;;15.48;5.50;;;;;;;5.77;100.00;98546.78;5002014;28;20507;-71
2022/11/22 06:43:45;;;;;;;18.33;6.20;;;;;;;5.77;100.00;98551.19;4996106;28;20134;-73
2022/11/22 06:46:17;;;;;;;24.45;6.10;;;;;;;5.76;100.00;98555.59;4982412;28;20089;-71
2022/11/22 06:48:44;;;;;;;25.25;6.40;;;;;;;5.59;100.00;98527.66;4984213;28;20050;-71
2022/11/22 06:51:13;;;;;;;16.70;5.50;;;;;;;5.80;100.00;98567.63;4992616;28;20052;-71
2022/11/22 06:53:41;;;;;;;17.58;5.63;;;;;;;5.76;100.00;98576.59;5003199;28;20245;-72
2022/11/22 06:56:29;;;;;;;19.17;6.15;;;;;;;5.72;100.00;98580.34;4981862;28;20134;-71
2022/11/22 06:58:56;;;;;;;20.75;6.20;;;;;;;5.67;100.00;98576.28;4998211;28;20060;-72
2022/11/22 07:01:25;;;;;;;16.77;5.88;;;;;;;5.51;100.00;98552.66;5004333;28;20498;-70
2022/11/22 07:03:56;;;;;;;22.73;6.07;;;;;;;5.50;100.00;98556.22;4997399;28;20046;-71
2022/11/22 07:06:29;;;;;;;11.70;4.65;;;;;;;5.63;100.00;98592.22;4993627;28;20423;-71
2022/11/22 07:08:57;;;;;;;19.13;5.28;;;;;;;5.57;100.00;98586.44;4986832;28;20081;-71
2022/11/22 07:11:26;;;;;;;16.75;5.82;;;;;;;5.59;100.00;98600.34;4999575;28;20060;-71
2022/11/22 07:13:55;;;;;;;15.77;5.68;;;;;;;5.60;100.00;98597.63;5003286;28;20054;-70
2022/11/22 07:16:27;;;;;;;25.38;6.25;;;;;;;5.61;100.00;98598.47;4981270;28;20074;-71
2022/11/22 07:18:53;;;;;;;22.55;6.80;;;;;;;5.42;100.00;98566.28;4989569;28;20116;-71
2022/11/22 07:21:23;;;;;;;16.70;6.13;;;;;;;5.60;100.00;98602.88;5002675;28;20520;-71
2022/11/22 07:23:51;;;;;;;25.38;5.75;;;;;;;5.64;100.00;98609.66;4997210;28;20061;-71
2022/11/22 07:26:20;;;;;;;20.30;5.22;;;;;;;5.62;100.00;98602.78;4990672;28;20086;-71
2022/11/22 07:28:47;;;;;;;17.00;5.40;;;;;;;5.70;100.00;98613.72;4989683;28;20420;-71
2022/11/22 07:31:15;;;;;;;18.77;5.53;;;;;;;5.70;100.00;98607.59;4998984;28;20046;-71
2022/11/22 07:33:43;;;;;;;24.05;5.00;;;;;;;5.73;100.00;98603.03;4994961;28;20042;-71
2022/11/22 07:36:20;;;;;;;23.33;5.40;;;;;;;5.63;100.00;98589.59;4998499;28;20121;-71
2022/11/22 07:38:48;;;;;;;17.25;5.25;;;;;;;5.70;100.00;98612.84;4992595;28;20045;-71
2022/11/22 07:41:16;;;;;;;17.48;5.28;;;;;;;5.47;100.00;98569.50;5000791;28;20077;-71
2022/11/22 07:43:43;;;;;;;17.77;4.72;;;;;;;5.70;100.00;98616.34;4999643;28;20057;-71
2022/11/22 07:46:25;;;;;;;22.50;4.50;;;;;;;5.56;100.00;98600.50;4991427;28;20047;-71
2022/11/22 07:48:51;;;;;;;20.17;4.60;;;;;;;5.75;100.00;98621.34;4987790;28;20502;-71
2022/11/22 07:51:18;;;;;;;19.45;4.85;;;;;;;5.76;100.00;98616.00;4996134;28;20101;-72
2022/11/22 07:53:45;;;;;;;16.73;4.30;;;;;;;5.86;100.00;98629.47;5002616;28;20089;-71
2022/11/22 07:56:11;;;;;;;17.33;5.03;;;;;;;5.90;100.00;98625.78;4993494;28;20467;-71
2022/11/22 07:58:38;;;;;;;21.10;4.78;;;;;;;5.94;100.00;98627.31;4989509;28;20060;-72
2022/11/22 08:01:11;;;;;;;15.18;4.35;;;;;;;5.96;100.00;98631.53;5000756;28;20050;-71
2022/11/22 08:03:38;;;;;;;19.73;4.60;;;;;;;5.96;100.00;98634.16;4998021;28;20092;-71
2022/11/22 08:06:07;;;;;;;21.33;3.85;;;;;;;5.98;100.00;98650.66;4994744;28;20046;-71
2022/11/22 08:08:35;;;;;;;17.90;4.90;;;;;;;5.99;100.00;98662.03;4988713;28;20050;-71
2022/11/22 08:11:02;;;;;;;16.77;3.35;;;;;;;6.01;100.00;98661.94;4998274;28;20560;-71
2022/11/22 08:13:30;;;;;;;14.20;3.15;;;;;;;6.08;100.00;98671.19;5002803;28;20137;-72
2022/11/22 08:16:02;;;;;;;17.50;3.53;;;;;;;6.09;100.00;98657.13;4995887;28;20211;-71
2022/11/22 08:18:32;;;;;;;15.50;3.40;;;;;;;6.19;100.00;98653.03;4986317;28;20057;-70
2022/11/22 08:21:03;;;;;;;15.93;3.30;;;;;;;6.27;100.00;98650.81;5000693;28;20465;-72
2022/11/22 08:23:30;;;;;;;14.70;3.08;;;;;;;6.29;100.00;98643.69;5000957;28;20074;-71
2022/11/22 08:25:57;;;;;;;18.10;3.15;;;;;;;6.35;100.00;98664.34;5000062;28;20111;-71
2022/11/22 08:28:24;;;;;;;16.02;3.22;;;;;;;6.36;100.00;98671.31;4984167;28;20046;-71
2022/11/22 08:30:57;;;;;;;16.75;3.03;;;;;;;6.21;100.00;98648.53;5000942;28;20132;-70
2022/11/22 08:33:23;;;;;;;14.35;2.70;;;;;;;6.44;100.00;98663.84;4992206;28;20542;-71
2022/11/22 08:35:50;;;;;;;15.20;2.60;;;;;;;6.47;100.00;98674.16;5004878;28;20053;-71
2022/11/22 08:38:17;;;;;;;11.93;2.75;;;;;;;6.44;100.00;98687.50;4979643;28;20053;-70
2022/11/22 08:40:43;;;;;;;11.85;2.42;;;;;;;6.40;100.00;98683.34;4999473;28;20058;-70
2022/11/22 08:43:10;;;;;;;14.43;2.60;;;;;;;6.49;100.00;98688.06;4989438;28;20054;-70
2022/11/22 08:45:37;;;;;;;12.43;2.53;;;;;;;6.57;100.00;98677.13;4992742;28;20085;-70
2022/11/22 08:48:04;;;;;;;10.88;2.30;;;;;;;6.63;100.00;98667.09;4980846;28;20042;-70
2022/11/22 08:50:31;;;;;;;7.95;2.80;;;;;;;6.69;100.00;98685.16;4995061;28;20049;-70
2022/11/22 08:53:00;;;;;;;8.82;2.10;;;;;;;6.69;100.00;98676.41;5000554;28;20483;-71
2022/11/22 08:55:26;;;;;;;11.68;2.80;;;;;;;6.78;100.00;98678.47;4991735;28;20093;-71
2022/11/22 08:57:57;;;;;;;18.40;3.00;;;;;;;6.79;100.00;98676.69;4978220;28;20042;-71
2022/11/22 09:00:25;;;;;;;11.88;2.75;;;;;;;6.80;100.00;98687.13;4999725;28;20049;-71
2022/11/22 09:02:58;;;;;;;14.27;2.72;;;;;;;6.62;100.00;98648.75;4996259;28;20072;-70
2022/11/22 09:05:25;;;;;;;13.13;2.72;;;;;;;6.87;100.00;98672.69;5003331;28;20450;-71
2022/11/22 09:07:52;;;;;;;16.08;3.00;;;;;;;7.02;100.00;98687.56;4983860;28;20403;-70
2022/11/22 09:10:38;;;;;;;11.85;3.28;;;;;;;7.01;100.00;98671.88;4989023;28;20053;-71
2022/11/22 09:13:05;;;;;;;9.98;2.90;;;;;;;7.05;100.00;98681.28;4999602;28;20049;-71
2022/11/22 09:15:31;;;;;;;14.73;3.58;;;;;;;7.08;100.00;98681.13;5008340;28;20137;-70
2022/11/22 09:18:00;;;;;;;11.98;3.15;;;;;;;7.07;100.00;98674.16;4981579;28;20492;-71
2022/11/22 09:20:27;;;;;;;15.48;2.72;;;;;;;7.13;100.00;98670.28;4995541;28;20154;-72
2022/11/22 09:22:54;;;;;;;12.30;2.80;;;;;;;6.97;100.00;98646.66;5002055;28;20541;-70
2022/11/22 09:25:21;;;;;;;17.20;3.17;;;;;;;6.98;100.00;98643.09;4994336;28;20058;-70
2022/11/22 09:27:47;;;;;;;10.27;2.85;;;;;;;7.13;100.00;98679.03;4982684;28;20136;-70
2022/11/22 09:30:14;;;;;;;12.80;2.83;;;;;;;6.96;100.00;98661.63;4995726;28;20161;-71
2022/11/22 09:32:43;;;;;;;11.93;2.45;;;;;;;7.12;100.00;98697.53;4993760;28;20078;-68
2022/11/22 09:35:10;;;;;;;10.90;2.55;;;;;;;7.12;100.00;98701.03;4998046;28;20466;-70
2022/11/22 09:37:36;;;;;;;9.88;2.35;;;;;;;7.15;100.00;98692.09;4982668;28;20049;-70
2022/11/22 09:40:03;;;;;;;8.57;2.30;;;;;;;7.16;100.00;98691.16;4992375;28;20053;-71
2022/11/22 09:42:50;;;;;;;9.65;2.00;;;;;;;7.25;100.00;98687.97;4997347;28;20081;-69
2022/11/22 09:45:52;;;;;;;7.43;1.75;;;;;;;7.25;100.00;98699.34;4997111;28;20387;-71
2022/11/22 09:48:38;;;;;;;10.73;2.40;;;;;;;7.14;100.00;98686.00;4983627;28;20081;-71
2022/11/22 09:51:16;;;;;;;9.50;2.10;;;;;;;7.16;100.00;98678.84;4985938;28;20046;-71
2022/11/22 09:53:58;;;;;;;10.43;2.20;;;;;;;7.22;100.00;98696.06;5000930;28;20548;-72
2022/11/22 09:56:27;;;;;;;8.05;2.10;;;;;;;7.16;100.00;98663.06;4988503;28;20081;-71
2022/11/22 09:59:04;;;;;;;12.13;2.15;;;;;;;7.30;100.00;98684.13;4987159;28;20072;-70
2022/11/22 10:01:49;;;;;;;10.38;1.83;;;;;;;7.42;100.00;98692.22;5001705;28;20053;-70
2022/11/22 10:04:23;;;;;;;9.05;2.60;;;;;;;7.35;100.00;98705.75;4992992;28;20042;-72
2022/11/22 10:06:57;;;;;;;9.65;1.77;;;;;;;7.27;100.00;98694.00;4988092;28;20070;-72
2022/11/22 10:09:38;;;;;;;11.82;2.17;;;;;;;7.13;100.00;98689.56;4988976;28;20526;-71
2022/11/22 10:12:16;;;;;;;8.77;1.80;;;;;;;7.18;100.00;98682.25;4988983;28;20047;-72
2022/11/22 10:15:11;;;;;;;8.32;2.00;;;;;;;7.18;100.00;98668.22;5003761;28;20081;-72
2022/11/22 10:17:50;;;;;;;13.95;2.10;;;;;;;7.25;100.00;98667.75;4983471;28;20050;-71
2022/11/22 10:20:28;;;;;;;8.63;2.10;;;;;;;7.21;100.00;98668.06;4989062;28;20129;-71
2022/11/22 10:22:57;;;;;;;8.63;2.38;;;;;;;7.21;100.00;98682.06;4998330;28;20073;-71
2022/11/22 10:25:43;;;;;;;11.23;2.00;;;;;;;7.14;100.00;98650.91;4988237;28;20263;-71
2022/11/22 10:28:13;;;;;;;11.27;2.15;;;;;;;7.37;100.00;98664.38;4981156;28;20054;-71
2022/11/22 10:30:52;;;;;;;8.75;2.33;;;;;;;7.44;100.00;98659.56;4995887;28;20056;-73
2022/11/22 10:33:28;;;;;;;10.85;2.50;;;;;;;7.38;100.00;98674.00;4987099;28;20137;-71
2022/11/22 10:36:15;;;;;;;8.73;1.92;;;;;;;7.31;100.00;98672.66;5003983;28;20057;-71
2022/11/22 10:39:01;;;;;;;8.48;1.92;;;;;;;7.28;100.00;98662.31;4983168;28;20085;-72
2022/11/22 10:41:41;;;;;;;11.48;2.53;;;;;;;7.35;100.00;98678.59;4987066;28;20104;-70
2022/11/22 10:44:59;;;;;;;7.22;2.15;;;;;;;7.34;100.00;98675.09;4999141;28;20130;-71
2022/11/22 10:47:32;;;;;;;12.40;2.17;;;;;;;7.39;100.00;98674.84;4958185;28;20062;-70
2022/11/22 10:50:10;;;;;;;8.82;2.33;;;;;;;7.49;100.00;98686.47;4994329;28;20146;-72
2022/11/22 10:53:02;;;;;;;12.38;2.22;;;;;;;7.67;100.00;98684.50;4996098;28;20054;-71
2022/11/22 10:56:09;;;;;;;8.45;2.22;;;;;;;7.68;100.00;98692.31;4996274;28;20052;-71
2022/11/22 10:59:14;;;;;;;10.73;2.35;;;;;;;7.67;100.00;98693.25;4986851;28;20133;-73
2022/11/22 11:01:59;;;;;;;11.80;2.63;;;;;;;7.75;100.00;98687.50;5000116;28;20129;-70
2022/11/22 11:04:33;;;;;;;11.88;2.72;;;;;;;7.66;100.00;98657.31;4999345;28;20058;-71
2022/11/22 11:07:04;;;;;;;10.63;2.45;;;;;;;7.87;100.00;98680.63;5000622;28;20065;-70
2022/11/22 11:09:45;;;;;;;11.38;2.20;;;;;;;7.90;100.00;98675.97;4982572;28;20151;-71
2022/11/22 11:12:46;;;;;;;10.02;2.20;;;;;;;7.89;100.00;98676.94;4985670;28;20050;-70
2022/11/22 11:15:22;;;;;;;8.95;2.58;;;;;;;7.88;100.00;98674.38;5004810;28;20149;-71
2022/11/22 11:17:54;;;;;;;9.68;2.58;;;;;;;7.81;100.00;98655.50;4989641;28;20082;-71
2022/11/22 11:20:34;;;;;;;14.27;2.67;;;;;;;7.95;100.00;98668.66;4991928;28;20054;-73
2022/11/22 11:23:00;;;;;;;11.82;2.28;;;;;;;7.66;100.00;98604.63;4999025;28;20153;-73
2022/11/22 11:25:44;;;;;;;11.15;2.63;;;;;;;8.24;100.00;98668.56;4999657;28;20080;-72
2022/11/22 11:28:26;;;;;;;10.60;2.65;;;;;;;8.24;100.00;98665.91;4976300;28;21879;-73
2022/11/22 11:31:01;;;;;;;6.93;2.22;;;;;;;8.14;100.00;98646.38;5001215;28;20045;-72
2022/11/22 11:33:30;;;;;;;9.75;2.65;;;;;;;8.26;100.00;98670.16;4995187;28;20050;-71
2022/11/22 11:36:22;;;;;;;6.40;2.25;;;;;;;8.21;100.00;98668.75;5005898;28;20141;-72
2022/11/22 11:38:56;;;;;;;6.75;2.20;;;;;;;8.28;100.00;98670.06;4983589;28;20042;-70
2022/11/22 11:41:32;;;;;;;10.82;2.10;;;;;;;8.33;100.00;98670.66;4997460;28;20054;-69
2022/11/22 11:44:04;;;;;;;12.88;2.67;;;;;;;8.35;100.00;98676.63;5001599;28;20161;-71
2022/11/22 11:46:40;;;;;;;11.15;2.30;;;;;;;8.34;100.00;98669.69;5001257;28;20498;-69
2022/11/22 11:49:14;;;;;;;11.68;2.20;;;;;;;8.19;100.00;98678.53;4987857;28;20126;-73
2022/11/22 11:51:53;;;;;;;14.77;3.08;;;;;;;8.19;100.00;98671.47;5000017;28;20154;-70
2022/11/22 11:54:22;;;;;;;11.30;2.20;;;;;;;8.17;100.00;98647.03;4993017;28;20137;-71